Time;durP1;ratioP1;P1;durP2;ratioP2;P2;SDS_P1;SDS_P2;PMS_P1;PMS_P2;Temp;Humidity;BMP_temperature;BMP_pressure;BME280_temperature;BME280_humidity;BME280_pressure;Samples;Min_cycle;Max_cycle;Signal;HPM_P1;HPM_P2
2022/02/08 00:02:01;;;;;;;;;;;10.00;81.90;;;;;;4879756;29;20613;-71
2022/02/08 00:04:29;;;;;;;;;;;10.00;81.90;;;;;;4879701;29;19944;-71
2022/02/08 00:07:00;;;;;;;;;;;10.00;82.00;;;;;;4879801;29;20272;-71
2022/02/08 00:09:30;;;;;;;;;;;9.90;82.00;;;;;;4879580;29;20398;-72
2022/02/08 00:11:57;;;;;;;;;;;10.00;82.00;;;;;;4878788;29;19928;-71
2022/02/08 00:14:25;;;;;;;;;;;10.00;82.00;;;;;;4879521;29;20409;-71
2022/02/08 00:16:52;;;;;;;;;;;9.90;82.00;;;;;;4878263;29;20279;-71
2022/02/08 00:19:19;;;;;;;;;;;10.00;82.00;;;;;;4878436;29;20397;-71
2022/02/08 00:21:47;;;;;;;;;;;10.00;82.10;;;;;;4879805;29;19928;-72
2022/02/08 00:24:15;;;;;;;;;;;9.90;82.20;;;;;;4878393;29;19928;-71
2022/02/08 00:26:42;;;;;;;;;;;9.90;82.30;;;;;;4878850;29;19935;-72
2022/02/08 00:29:09;;;;;;;;;;;10.00;82.50;;;;;;4880245;29;19932;-72
2022/02/08 00:31:37;;;;;;;;;;;9.90;82.60;;;;;;4883805;29;20408;-69
2022/02/08 00:34:04;;;;;;;;;;;9.90;82.70;;;;;;4879817;29;19935;-70
2022/02/08 00:36:32;;;;;;;;;;;10.00;82.70;;;;;;4878209;29;19928;-71
2022/02/08 00:39:00;;;;;;;;;;;10.00;82.70;;;;;;4879448;29;19935;-70
2022/02/08 00:41:27;;;;;;;;;;;10.00;82.80;;;;;;4879337;29;19931;-71
2022/02/08 00:47:14;;;;;;;;;;;10.00;83.00;;;;;;4879298;29;19928;-71
2022/02/08 00:49:14;;;;;;;;;;;10.00;83.00;;;;;;4880048;29;20309;-70
2022/02/08 00:51:45;;;;;;;;;;;9.90;83.10;;;;;;4862691;29;19934;-70
2022/02/08 00:54:15;;;;;;;;;;;10.00;83.20;;;;;;4877724;29;20326;-70
2022/02/08 00:56:44;;;;;;;;;;;10.00;83.30;;;;;;4877351;29;19935;-71
2022/02/08 00:59:11;;;;;;;;;;;10.00;83.50;;;;;;4875975;29;19927;-70
2022/02/08 01:01:39;;;;;;;;;;;10.00;83.60;;;;;;4877153;29;19928;-71
2022/02/08 01:04:08;;;;;;;;;;;10.00;83.70;;;;;;4878199;29;19928;-71
2022/02/08 01:06:36;;;;;;;;;;;10.00;83.60;;;;;;4877551;29;20417;-71
2022/02/08 01:09:17;;;;;;;;;;;10.00;83.70;;;;;;4877828;29;19928;-70
2022/02/08 01:11:51;;;;;;;;;;;10.00;83.90;;;;;;4878419;29;19927;-71
2022/02/08 01:14:19;;;;;;;;;;;10.00;83.80;;;;;;4877027;29;19935;-71
2022/02/08 01:16:46;;;;;;;;;;;10.00;83.90;;;;;;4879022;29;19934;-71
2022/02/08 01:19:15;;;;;;;;;;;10.00;83.90;;;;;;4877005;29;19928;-71
2022/02/08 01:21:42;;;;;;;;;;;10.00;84.00;;;;;;4863560;29;19935;-71
2022/02/08 01:24:11;;;;;;;;;;;10.00;83.90;;;;;;4880763;29;19927;-71
2022/02/08 01:26:47;;;;;;;;;;;10.00;84.00;;;;;;4879982;29;19932;-71
2022/02/08 01:32:13;;;;;;;;;;;10.00;84.20;;;;;;4881406;29;19935;-71
2022/02/08 01:43:35;;;;;;;;;;;10.00;84.20;;;;;;4882080;29;19935;-71
2022/02/08 01:48:46;;;;;;;;;;;10.10;84.20;;;;;;4881308;29;19943;-71
2022/02/08 01:51:14;;;;;;;;;;;10.10;84.00;;;;;;4880916;29;19927;-71
2022/02/08 01:53:41;;;;;;;;;;;10.20;84.00;;;;;;4880552;29;19927;-71
2022/02/08 01:56:09;;;;;;;;;;;10.10;84.00;;;;;;4880550;29;19938;-71
2022/02/08 01:58:37;;;;;;;;;;;10.10;84.00;;;;;;4880287;29;20045;-71
2022/02/08 02:01:18;;;;;;;;;;;10.20;83.90;;;;;;4880099;29;19935;-71
2022/02/08 02:03:45;;;;;;;;;;;10.20;84.00;;;;;;4881535;29;19928;-70
2022/02/08 02:06:35;;;;;;;;;;;10.10;84.00;;;;;;4875493;29;19935;-70
2022/02/08 02:09:05;;;;;;;;;;;10.10;84.00;;;;;;4880264;29;19928;-70
2022/02/08 02:11:34;;;;;;;;;;;10.10;84.00;;;;;;4873340;29;19928;-71
2022/02/08 02:14:02;;;;;;;;;;;10.10;84.10;;;;;;4880350;29;19928;-71
2022/02/08 02:17:12;;;;;;;;;;;10.00;84.20;;;;;;4880405;29;19939;-71
2022/02/08 02:19:22;;;;;;;;;;;10.00;84.20;;;;;;4879938;29;19935;-72
2022/02/08 02:21:50;;;;;;;;;;;9.90;84.40;;;;;;4880260;29;20309;-71
2022/02/08 02:24:17;;;;;;;;;;;9.90;84.30;;;;;;4880102;29;19947;-71
2022/02/08 02:26:45;;;;;;;;;;;9.90;84.40;;;;;;4859051;29;19932;-71
2022/02/08 02:29:16;;;;;;;;;;;9.90;84.40;;;;;;4871033;29;20293;-71
2022/02/08 02:31:44;;;;;;;;;;;9.90;84.50;;;;;;4879118;29;19943;-70
2022/02/08 02:34:14;;;;;;;;;;;9.80;84.50;;;;;;4859320;29;20306;-71
2022/02/08 02:36:42;;;;;;;;;;;9.80;84.60;;;;;;4869168;29;19928;-70
2022/02/08 02:39:09;;;;;;;;;;;9.80;84.60;;;;;;4855566;29;20333;-70
2022/02/08 02:41:37;;;;;;;;;;;9.90;84.60;;;;;;4859279;29;19928;-71
2022/02/08 02:44:07;;;;;;;;;;;9.90;84.60;;;;;;4879226;29;19928;-71
2022/02/08 02:46:35;;;;;;;;;;;9.80;84.50;;;;;;4864432;29;19927;-71
2022/02/08 02:49:03;;;;;;;;;;;9.80;84.50;;;;;;4878924;29;19936;-71
2022/02/08 02:51:31;;;;;;;;;;;9.80;84.60;;;;;;4877854;29;19928;-71
2022/02/08 02:53:59;;;;;;;;;;;9.80;84.60;;;;;;4878752;29;19928;-71
2022/02/08 02:56:28;;;;;;;;;;;9.80;84.50;;;;;;4877097;29;19928;-71
2022/02/08 02:59:02;;;;;;;;;;;9.90;84.30;;;;;;4877495;29;19962;-71
2022/02/08 03:04:25;;;;;;;;;;;9.90;84.40;;;;;;4878014;29;19932;-71
2022/02/08 03:20:27;;;;;;;;;;;9.80;84.80;;;;;;4863847;29;19927;-70
2022/02/08 03:23:00;;;;;;;;;;;9.80;84.90;;;;;;4875423;29;19943;-71
2022/02/08 03:25:28;;;;;;;;;;;9.80;85.00;;;;;;4878727;29;19951;-71
2022/02/08 03:28:00;;;;;;;;;;;9.80;85.00;;;;;;4878688;29;19931;-70
2022/02/08 03:30:29;;;;;;;;;;;9.80;85.20;;;;;;4878815;29;19935;-71
2022/02/08 03:32:57;;;;;;;;;;;9.80;85.20;;;;;;4880048;29;20413;-71
2022/02/08 03:35:28;;;;;;;;;;;9.80;85.30;;;;;;4879094;29;19950;-71
2022/02/08 03:38:00;;;;;;;;;;;9.80;85.30;;;;;;4879832;29;19935;-71
2022/02/08 03:43:16;;;;;;;;;;;10.00;84.90;;;;;;4875737;29;19928;-71
2022/02/08 03:45:47;;;;;;;;;;;10.10;84.80;;;;;;4860753;29;19936;-71
2022/02/08 03:48:18;;;;;;;;;;;10.10;84.80;;;;;;4884298;29;19936;-71
2022/02/08 03:50:53;;;;;;;;;;;10.10;84.80;;;;;;4875820;29;19935;-71
2022/02/08 03:53:24;;;;;;;;;;;10.20;84.80;;;;;;4878526;29;19928;-71
2022/02/08 03:55:52;;;;;;;;;;;10.20;84.60;;;;;;4878146;29;19928;-71
2022/02/08 03:58:20;;;;;;;;;;;10.30;84.50;;;;;;4878533;29;20272;-71
2022/02/08 04:03:25;;;;;;;;;;;10.20;84.60;;;;;;4878703;29;19928;-71
2022/02/08 04:05:54;;;;;;;;;;;10.30;84.60;;;;;;4879326;29;19928;-71
2022/02/08 04:08:22;;;;;;;;;;;10.30;84.60;;;;;;4879353;29;19928;-71
2022/02/08 04:10:50;;;;;;;;;;;10.30;84.70;;;;;;4878599;29;19928;-71
2022/02/08 04:13:23;;;;;;;;;;;10.30;84.50;;;;;;4877468;29;19932;-71
2022/02/08 04:43:35;;;;;;;;;;;10.20;85.70;;;;;;4857280;29;20398;-71
2022/02/08 04:46:24;;;;;;;;;;;10.20;85.80;;;;;;4873594;29;19979;-71
2022/02/08 04:48:56;;;;;;;;;;;10.20;86.00;;;;;;4858543;29;19976;-71
2022/02/08 04:51:33;;;;;;;;;;;10.20;86.10;;;;;;4874154;29;20353;-71
2022/02/08 05:02:02;;;;;;;;;;;10.00;86.50;;;;;;4873358;29;19928;-71
2022/02/08 05:48:46;;;;;;;;;;;10.10;87.20;;;;;;4862901;29;19928;-71
2022/02/08 05:51:20;;;;;;;;;;;10.10;87.20;;;;;;4878842;29;19934;-71
2022/02/08 05:53:48;;;;;;;;;;;10.10;87.20;;;;;;4873602;29;21776;-71
2022/02/08 05:56:16;;;;;;;;;;;10.00;87.30;;;;;;4878512;29;20390;-71
2022/02/08 05:58:46;;;;;;;;;;;10.00;87.40;;;;;;4877794;29;19928;-71
2022/02/08 06:01:14;;;;;;;;;;;10.00;87.50;;;;;;4864375;29;19935;-71
2022/02/08 06:04:05;;;;;;;;;;;10.00;87.50;;;;;;4876437;29;19932;-70
2022/02/08 06:06:33;;;;;;;;;;;10.00;87.50;;;;;;4876875;29;20701;-70
2022/02/08 06:09:00;;;;;;;;;;;10.00;87.60;;;;;;4881413;29;19928;-71
2022/02/08 06:11:28;;;;;;;;;;;10.00;87.70;;;;;;4881844;29;20302;-71
2022/02/08 06:13:58;;;;;;;;;;;9.90;87.70;;;;;;4861109;29;19928;-71
2022/02/08 06:16:27;;;;;;;;;;;9.90;87.90;;;;;;4880127;29;19927;-71
2022/02/08 06:18:54;;;;;;;;;;;9.90;87.90;;;;;;4881631;29;19928;-71
2022/02/08 06:21:22;;;;;;;;;;;9.80;88.10;;;;;;4889555;29;19934;-70
2022/02/08 06:23:51;;;;;;;;;;;9.80;88.20;;;;;;4880256;29;19939;-70
2022/02/08 06:26:21;;;;;;;;;;;9.80;88.30;;;;;;4881246;29;19928;-70
2022/02/08 06:28:59;;;;;;;;;;;9.80;88.50;;;;;;4880637;29;20405;-70
2022/02/08 06:31:27;;;;;;;;;;;9.80;88.60;;;;;;4880890;29;19935;-70
2022/02/08 06:33:54;;;;;;;;;;;9.80;88.60;;;;;;4879282;29;19928;-70
2022/02/08 06:36:22;;;;;;;;;;;9.70;88.60;;;;;;4879206;29;19927;-70
2022/02/08 06:38:49;;;;;;;;;;;9.80;88.60;;;;;;4878865;29;19936;-70
2022/02/08 06:41:17;;;;;;;;;;;9.80;88.50;;;;;;4863716;29;19928;-71
2022/02/08 06:43:47;;;;;;;;;;;9.80;88.30;;;;;;4866675;29;20385;-71
2022/02/08 06:46:14;;;;;;;;;;;9.80;88.20;;;;;;4879228;29;19935;-71
2022/02/08 06:48:42;;;;;;;;;;;9.90;88.20;;;;;;4879401;29;20421;-71
2022/02/08 06:51:09;;;;;;;;;;;9.80;88.20;;;;;;4879486;29;19932;-71
2022/02/08 06:53:37;;;;;;;;;;;9.80;88.20;;;;;;4881124;29;20333;-71
2022/02/08 06:56:04;;;;;;;;;;;9.90;88.20;;;;;;4880793;29;19935;-71
2022/02/08 06:58:47;;;;;;;;;;;9.90;88.10;;;;;;4881032;29;20006;-70
2022/02/08 07:01:15;;;;;;;;;;;9.90;88.10;;;;;;4881104;29;20378;-72
2022/02/08 07:03:46;;;;;;;;;;;9.90;88.10;;;;;;4880587;29;20378;-71
2022/02/08 07:06:14;;;;;;;;;;;9.90;88.10;;;;;;4878997;29;19943;-70
2022/02/08 07:08:41;;;;;;;;;;;9.90;88.10;;;;;;4880880;29;20338;-70
2022/02/08 07:11:15;;;;;;;;;;;9.90;88.20;;;;;;4879412;29;19928;-70
2022/02/08 07:13:44;;;;;;;;;;;9.80;88.20;;;;;;4879662;29;20298;-73
2022/02/08 07:16:12;;;;;;;;;;;9.80;88.00;;;;;;4880466;29;19938;-70
2022/02/08 07:18:39;;;;;;;;;;;9.80;88.00;;;;;;4880201;29;20314;-70
2022/02/08 07:21:07;;;;;;;;;;;9.80;88.20;;;;;;4879202;29;19935;-70
2022/02/08 07:23:34;;;;;;;;;;;9.80;88.00;;;;;;4879995;29;19934;-71
2022/02/08 07:26:02;;;;;;;;;;;9.80;88.00;;;;;;4876468;29;19932;-71
2022/02/08 07:28:30;;;;;;;;;;;9.80;87.90;;;;;;4880512;29;19928;-71
2022/02/08 07:31:07;;;;;;;;;;;9.80;88.00;;;;;;4880088;29;19928;-71
2022/02/08 07:33:39;;;;;;;;;;;9.70;88.10;;;;;;4860756;29;19928;-70
2022/02/08 07:36:21;;;;;;;;;;;9.70;88.10;;;;;;4877377;29;19951;-70
2022/02/08 07:38:50;;;;;;;;;;;9.60;88.20;;;;;;4879620;29;19927;-70
2022/02/08 07:41:38;;;;;;;;;;;9.60;88.20;;;;;;4880240;29;19935;-70
2022/02/08 07:44:06;;;;;;;;;;;9.60;88.20;;;;;;4880735;29;19935;-70
2022/02/08 07:46:43;;;;;;;;;;;9.60;88.20;;;;;;4885415;29;20008;-70
2022/02/08 07:49:13;;;;;;;;;;;9.60;88.20;;;;;;4878873;29;19935;-70
2022/02/08 07:51:42;;;;;;;;;;;9.60;88.20;;;;;;4879506;29;19954;-71
2022/02/08 07:54:11;;;;;;;;;;;9.60;88.10;;;;;;4879783;29;19952;-70
2022/02/08 07:56:38;;;;;;;;;;;9.60;88.00;;;;;;4878654;29;19934;-70
2022/02/08 07:59:06;;;;;;;;;;;9.60;88.00;;;;;;4879981;29;19935;-70
2022/02/08 08:01:33;;;;;;;;;;;9.60;87.90;;;;;;4879017;29;20374;-70
2022/02/08 08:04:01;;;;;;;;;;;9.60;87.90;;;;;;4879470;29;19935;-70
2022/02/08 08:06:28;;;;;;;;;;;9.70;87.80;;;;;;4862716;29;19935;-70
2022/02/08 08:08:56;;;;;;;;;;;9.70;87.60;;;;;;4879244;29;20342;-71
2022/02/08 08:11:24;;;;;;;;;;;9.70;87.40;;;;;;4862630;29;19935;-71
2022/02/08 08:16:43;;;;;;;;;;;9.80;87.30;;;;;;4879534;29;19928;-71
2022/02/08 08:21:41;;;;;;;;;;;9.80;87.10;;;;;;4877630;29;20386;-70
2022/02/08 08:24:08;;;;;;;;;;;9.80;87.00;;;;;;4877380;29;19944;-70
2022/02/08 08:26:37;;;;;;;;;;;9.80;87.00;;;;;;4877392;29;19935;-71
2022/02/08 08:29:04;;;;;;;;;;;10.00;86.80;;;;;;4878084;29;19927;-71
2022/02/08 08:31:32;;;;;;;;;;;10.00;86.60;;;;;;4878090;29;19928;-71
2022/02/08 08:34:09;;;;;;;;;;;10.00;86.60;;;;;;4878609;29;19927;-71
2022/02/08 08:36:36;;;;;;;;;;;10.00;86.60;;;;;;4878469;29;19935;-71
2022/02/08 08:39:05;;;;;;;;;;;10.00;86.60;;;;;;4878077;29;20322;-71
2022/02/08 08:49:49;;;;;;;;;;;10.20;86.50;;;;;;4884527;29;19928;-71
2022/02/08 08:52:23;;;;;;;;;;;10.30;86.50;;;;;;4858692;29;19928;-71
2022/02/08 08:54:51;;;;;;;;;;;10.30;86.50;;;;;;4877869;29;19927;-71
2022/02/08 08:57:18;;;;;;;;;;;10.40;86.50;;;;;;4879086;29;20298;-70
2022/02/08 08:59:46;;;;;;;;;;;10.50;86.40;;;;;;4877556;29;20302;-71
2022/02/08 09:02:13;;;;;;;;;;;10.50;86.30;;;;;;4878991;29;19938;-71
2022/02/08 09:04:43;;;;;;;;;;;10.60;86.30;;;;;;4878893;29;19928;-71
2022/02/08 09:07:12;;;;;;;;;;;10.60;86.20;;;;;;4861901;29;20425;-71
2022/02/08 09:09:42;;;;;;;;;;;10.60;86.20;;;;;;4878900;29;19928;-71
2022/02/08 09:12:19;;;;;;;;;;;10.60;86.40;;;;;;4878458;29;19932;-71
2022/02/08 09:15:19;;;;;;;;;;;10.60;86.40;;;;;;4877641;29;19935;-71
2022/02/08 09:20:54;;;;;;;;;;;10.70;86.50;;;;;;4878863;29;20381;-71
2022/02/08 09:24:09;;;;;;;;;;;10.70;86.40;;;;;;4883934;29;19928;-72
2022/02/08 09:29:06;;;;;;;;;;;10.80;86.20;;;;;;4877105;29;19928;-71
2022/02/08 09:31:36;;;;;;;;;;;10.80;86.30;;;;;;4878669;29;20306;-71
2022/02/08 09:34:05;;;;;;;;;;;10.80;86.10;;;;;;4876778;29;20302;-71
2022/02/08 09:36:32;;;;;;;;;;;10.90;85.90;;;;;;4878720;29;19935;-69
2022/02/08 09:39:00;;;;;;;;;;;11.00;85.60;;;;;;4878438;29;19934;-71
2022/02/08 09:41:30;;;;;;;;;;;11.00;85.50;;;;;;4878265;29;19935;-71
2022/02/08 09:43:58;;;;;;;;;;;11.10;85.50;;;;;;4881936;29;19928;-71
2022/02/08 09:46:25;;;;;;;;;;;11.10;85.50;;;;;;4882208;29;20289;-71
2022/02/08 09:48:56;;;;;;;;;;;11.20;85.40;;;;;;4880970;29;19939;-71
2022/02/08 09:51:24;;;;;;;;;;;11.20;85.10;;;;;;4881698;29;19928;-71
2022/02/08 09:53:57;;;;;;;;;;;11.30;84.70;;;;;;4880982;29;19935;-71
2022/02/08 09:56:27;;;;;;;;;;;11.30;84.90;;;;;;4881820;29;19939;-71
2022/02/08 09:58:55;;;;;;;;;;;11.30;84.50;;;;;;4881342;29;19928;-71
2022/02/08 10:01:23;;;;;;;;;;;11.40;84.70;;;;;;4881170;29;19928;-71
2022/02/08 10:03:54;;;;;;;;;;;11.40;84.80;;;;;;4881547;29;19928;-71
2022/02/08 10:06:23;;;;;;;;;;;11.40;84.60;;;;;;4881363;29;19935;-71
2022/02/08 10:08:58;;;;;;;;;;;11.50;84.70;;;;;;4881712;29;19932;-70
2022/02/08 10:11:29;;;;;;;;;;;11.50;84.30;;;;;;4864911;29;19928;-71
2022/02/08 10:14:18;;;;;;;;;;;11.60;84.40;;;;;;4881283;29;20390;-70
2022/02/08 10:22:44;;;;;;;;;;;11.70;83.90;;;;;;4876940;29;19928;-71
2022/02/08 10:25:18;;;;;;;;;;;11.70;83.80;;;;;;4879583;29;19927;-71
2022/02/08 10:28:01;;;;;;;;;;;11.60;83.80;;;;;;4878050;29;20310;-70
2022/02/08 10:38:40;;;;;;;;;;;11.30;84.50;;;;;;4881044;29;19928;-71
2022/02/08 10:41:12;;;;;;;;;;;11.20;84.60;;;;;;4881047;29;19928;-71
2022/02/08 10:43:40;;;;;;;;;;;11.10;84.70;;;;;;4881311;29;19934;-71
2022/02/08 10:46:20;;;;;;;;;;;11.10;84.90;;;;;;4881044;29;19928;-72
2022/02/08 10:48:58;;;;;;;;;;;11.00;85.30;;;;;;4880772;29;19928;-71
2022/02/08 10:51:25;;;;;;;;;;;11.00;85.30;;;;;;4880852;29;19928;-71
2022/02/08 10:54:00;;;;;;;;;;;11.00;85.30;;;;;;4880202;29;19928;-72
2022/02/08 10:56:32;;;;;;;;;;;11.00;85.30;;;;;;4880860;29;19934;-71
2022/02/08 10:59:49;;;;;;;;;;;11.10;85.40;;;;;;4880976;29;20302;-71
2022/02/08 11:02:01;;;;;;;;;;;11.00;85.30;;;;;;4880463;29;19934;-71
2022/02/08 11:04:42;;;;;;;;;;;11.00;85.50;;;;;;4880392;29;19927;-71
2022/02/08 11:07:29;;;;;;;;;;;11.00;85.50;;;;;;4871562;29;19935;-71
2022/02/08 11:10:13;;;;;;;;;;;11.00;85.80;;;;;;4880667;29;19927;-71
2022/02/08 11:18:18;;;;;;;;;;;11.20;85.20;;;;;;4873091;29;20322;-71
2022/02/08 11:20:59;;;;;;;;;;;11.20;85.20;;;;;;4880717;29;20310;-71
2022/02/08 11:23:34;;;;;;;;;;;11.30;85.10;;;;;;4880598;29;19928;-71
2022/02/08 11:26:02;;;;;;;;;;;11.50;85.20;;;;;;4862088;29;19935;-71
2022/02/08 11:28:44;;;;;;;;;;;11.60;84.50;;;;;;4861733;29;19928;-71
2022/02/08 11:31:22;;;;;;;;;;;11.60;84.40;;;;;;4861909;29;19928;-71
2022/02/08 11:47:51;;;;;;;;;;;11.30;84.60;;;;;;4878556;29;19928;-70
2022/02/08 11:51:01;;;;;;;;;;;11.30;84.80;;;;;;4880048;29;19935;-69
2022/02/08 11:56:15;;;;;;;;;;;11.30;85.10;;;;;;4880624;29;19931;-73
2022/02/08 11:58:44;;;;;;;;;;;11.30;85.30;;;;;;4879081;29;19928;-71
2022/02/08 12:01:27;;;;;;;;;;;11.30;85.40;;;;;;4878239;29;19943;-72
2022/02/08 12:04:12;;;;;;;;;;;11.30;85.50;;;;;;4876654;29;19928;-70
2022/02/08 12:09:40;;;;;;;;;;;11.30;85.60;;;;;;4877768;29;19927;-71
2022/02/08 12:12:35;;;;;;;;;;;11.40;85.40;;;;;;4881039;29;19936;-71
2022/02/08 12:32:58;;;;;;;;;;;12.10;83.50;;;;;;4874818;29;20309;-71
2022/02/08 14:06:10;;;;;;;;;;;12.10;82.50;;;;;;4821487;29;19968;-72
2022/02/08 14:24:33;;;;;;;;;;;12.00;83.10;;;;;;4866761;29;19931;-72
2022/02/08 14:29:53;;;;;;;;;;;11.80;83.70;;;;;;4865491;29;19935;-71
2022/02/08 14:32:34;;;;;;;;;;;11.80;83.80;;;;;;4871304;29;19928;-71
2022/02/08 15:08:10;;;;;;;;;;;12.10;82.70;;;;;;4885143;29;20278;-71
2022/02/08 15:10:50;;;;;;;;;;;12.10;82.80;;;;;;4882267;29;19927;-70
2022/02/08 15:13:21;;;;;;;;;;;12.20;82.40;;;;;;4892863;29;19928;-70
2022/02/08 15:16:27;;;;;;;;;;;12.30;82.20;;;;;;4883223;29;19951;-71
2022/02/08 15:18:56;;;;;;;;;;;12.30;82.00;;;;;;4890871;29;20282;-70
2022/02/08 15:21:31;;;;;;;;;;;12.20;82.00;;;;;;4880917;29;19935;-70
2022/02/08 15:24:01;;;;;;;;;;;12.20;82.30;;;;;;4889026;29;20274;-71
2022/02/08 15:26:28;;;;;;;;;;;12.20;82.30;;;;;;4881305;29;20305;-71
2022/02/08 15:29:02;;;;;;;;;;;12.10;82.20;;;;;;4882667;29;20417;-71
2022/02/08 15:31:29;;;;;;;;;;;12.00;82.60;;;;;;4878067;29;19928;-71
2022/02/08 15:33:59;;;;;;;;;;;12.00;82.40;;;;;;4876076;29;20327;-71
2022/02/08 15:36:30;;;;;;;;;;;12.00;82.80;;;;;;4879827;29;19928;-71
2022/02/08 15:39:06;;;;;;;;;;;12.00;82.70;;;;;;4890457;29;19935;-71
2022/02/08 15:41:39;;;;;;;;;;;12.00;82.80;;;;;;4881857;29;19936;-71
2022/02/08 15:44:13;;;;;;;;;;;12.00;82.70;;;;;;4881930;29;19943;-71
2022/02/08 15:46:41;;;;;;;;;;;12.00;82.80;;;;;;4879141;29;20286;-71
2022/02/08 15:49:08;;;;;;;;;;;11.90;82.80;;;;;;4862449;29;19932;-71
2022/02/08 15:51:43;;;;;;;;;;;11.90;82.80;;;;;;4879240;29;19928;-70
2022/02/08 16:05:21;;;;;;;;;;;11.70;83.50;;;;;;4878756;29;19928;-71
2022/02/08 16:08:19;;;;;;;;;;;11.60;83.70;;;;;;4879236;29;19928;-71
2022/02/08 16:11:41;;;;;;;;;;;11.60;84.00;;;;;;4877464;29;19928;-71
2022/02/08 16:14:11;;;;;;;;;;;11.50;84.20;;;;;;4878592;29;19928;-71
2022/02/08 16:22:20;;;;;;;;;;;11.50;84.20;;;;;;4878944;29;19943;-71
2022/02/08 16:57:10;;;;;;;;;;;11.50;84.00;;;;;;4878414;29;19932;-72
2022/02/08 16:59:34;;;;;;;;;;;11.50;84.00;;;;;;4877991;29;20302;-72
2022/02/08 17:02:05;;;;;;;;;;;11.40;83.90;;;;;;4877372;29;19944;-72
2022/02/08 17:04:33;;;;;;;;;;;11.40;83.90;;;;;;4877752;29;19935;-72
2022/02/08 17:07:00;;;;;;;;;;;11.30;83.90;;;;;;4876138;29;19935;-71
2022/02/08 17:09:44;;;;;;;;;;;11.30;84.00;;;;;;4875026;29;20305;-71
2022/02/08 17:17:50;;;;;;;;;;;11.10;83.80;;;;;;4876800;29;20394;-71
2022/02/08 17:45:18;;;;;;;;;;;10.70;83.00;;;;;;4877535;29;20309;-71
2022/02/08 17:47:47;;;;;;;;;;;10.70;83.00;;;;;;4870023;29;20306;-72
2022/02/08 17:50:17;;;;;;;;;;;10.60;83.00;;;;;;4870088;29;20413;-71
2022/02/08 17:52:47;;;;;;;;;;;10.60;82.90;;;;;;4872290;29;19947;-71
2022/02/08 17:55:15;;;;;;;;;;;10.60;82.80;;;;;;4858365;29;20302;-71
2022/02/08 17:57:43;;;;;;;;;;;10.50;82.90;;;;;;4877792;29;20286;-72
2022/02/08 18:00:13;;;;;;;;;;;10.50;83.00;;;;;;4872997;29;19951;-71
2022/02/08 18:02:43;;;;;;;;;;;10.50;82.80;;;;;;4878632;29;19928;-71
2022/02/08 18:05:12;;;;;;;;;;;10.40;82.90;;;;;;4880908;29;19927;-72
2022/02/08 18:07:40;;;;;;;;;;;10.40;83.10;;;;;;4878709;29;19938;-73
2022/02/08 18:10:08;;;;;;;;;;;10.40;83.30;;;;;;4880810;29;19927;-71
2022/02/08 18:12:39;;;;;;;;;;;10.40;83.30;;;;;;4880454;29;20317;-72
2022/02/08 18:15:11;;;;;;;;;;;10.50;83.40;;;;;;4879529;29;19928;-71
2022/02/08 18:17:52;;;;;;;;;;;10.50;83.40;;;;;;4880460;29;20005;-71
2022/02/08 18:20:28;;;;;;;;;;;10.50;83.30;;;;;;4880499;29;19936;-75
2022/02/08 19:22:39;;;;;;;;;;;10.40;84.20;;;;;;4824888;29;19936;-70
2022/02/08 19:25:07;;;;;;;;;;;10.40;84.20;;;;;;4806750;29;20446;-73
2022/02/08 19:27:36;;;;;;;;;;;10.50;83.90;;;;;;4802929;29;19929;-71
2022/02/08 19:30:04;;;;;;;;;;;10.40;83.80;;;;;;4806979;29;19929;-70
2022/02/08 19:32:31;;;;;;;;;;;10.40;83.70;;;;;;4812729;29;19939;-71
2022/02/08 19:34:59;;;;;;;;;;;10.40;83.50;;;;;;4803860;29;19929;-71
2022/02/08 19:37:26;;;;;;;;;;;10.40;83.70;;;;;;4798797;29;19940;-70
2022/02/08 19:39:54;;;;;;;;;;;10.40;83.70;;;;;;4805709;29;20584;-70
2022/02/08 19:42:22;;;;;;;;;;;10.40;83.50;;;;;;4791793;29;19929;-72
2022/02/08 19:44:55;;;;;;;;;;;10.40;83.40;;;;;;4781411;29;19937;-71
2022/02/08 19:47:24;;;;;;;;;;;10.40;83.20;;;;;;4816978;29;19928;-70
2022/02/08 19:49:52;;;;;;;;;;;10.40;83.10;;;;;;4797621;29;19936;-71
2022/02/08 19:52:21;;;;;;;;;;;10.40;82.90;;;;;;4788556;29;19944;-70
2022/02/08 19:55:11;;;;;;;;;;;10.40;82.90;;;;;;4855113;29;19932;-73
2022/02/08 19:57:37;;;;;;;;;;;10.40;82.70;;;;;;4876031;29;20295;-71
2022/02/08 20:00:08;;;;;;;;;;;10.40;82.80;;;;;;4873996;29;19929;-71
2022/02/08 20:02:43;;;;;;;;;;;10.30;82.50;;;;;;4882347;29;19943;-71
2022/02/08 20:05:14;;;;;;;;;;;10.40;82.50;;;;;;4876698;29;20310;-73
2022/02/08 20:07:42;;;;;;;;;;;10.40;82.40;;;;;;4884306;29;20416;-71
2022/02/08 20:10:10;;;;;;;;;;;10.40;82.30;;;;;;4876404;29;19931;-71
2022/02/08 20:12:38;;;;;;;;;;;10.30;82.30;;;;;;4880269;29;20002;-71
2022/02/08 20:15:08;;;;;;;;;;;10.30;82.20;;;;;;4876592;29;19935;-70
2022/02/08 20:17:36;;;;;;;;;;;10.30;82.10;;;;;;4878971;29;19928;-70
2022/02/08 20:20:12;;;;;;;;;;;10.30;82.20;;;;;;4877326;29;19927;-70
2022/02/08 20:22:45;;;;;;;;;;;10.30;82.00;;;;;;4879082;29;19936;-71
2022/02/08 20:25:14;;;;;;;;;;;10.30;81.80;;;;;;4880348;29;19938;-71
2022/02/08 20:27:48;;;;;;;;;;;10.30;81.80;;;;;;4869401;29;19932;-72
2022/02/08 20:30:20;;;;;;;;;;;10.20;81.90;;;;;;4879730;29;19935;-71
2022/02/08 20:32:50;;;;;;;;;;;10.20;81.80;;;;;;4862730;29;19927;-71
2022/02/08 20:35:19;;;;;;;;;;;10.20;81.90;;;;;;4880210;29;19947;-70
2022/02/08 20:37:48;;;;;;;;;;;10.20;81.90;;;;;;4866848;29;19928;-70
2022/02/08 20:40:18;;;;;;;;;;;10.20;82.00;;;;;;4876574;29;19935;-70
2022/02/08 20:42:46;;;;;;;;;;;10.20;81.90;;;;;;4877083;29;20437;-71
2022/02/08 20:45:14;;;;;;;;;;;10.20;81.80;;;;;;4874913;29;19932;-71
2022/02/08 20:47:45;;;;;;;;;;;10.20;81.90;;;;;;4880626;29;19928;-71
2022/02/08 20:50:17;;;;;;;;;;;10.20;81.70;;;;;;4877763;29;20305;-71
2022/02/08 20:52:51;;;;;;;;;;;10.20;81.70;;;;;;4877420;29;19928;-72
2022/02/08 20:55:20;;;;;;;;;;;10.20;81.90;;;;;;4878679;29;19932;-70
2022/02/08 20:58:00;;;;;;;;;;;10.20;82.00;;;;;;4884418;29;19935;-70
2022/02/08 21:00:28;;;;;;;;;;;10.20;82.00;;;;;;4872986;29;19935;-70
2022/02/08 21:03:00;;;;;;;;;;;10.10;82.10;;;;;;4873535;29;19939;-68
2022/02/08 21:05:32;;;;;;;;;;;10.20;82.10;;;;;;4881168;29;19934;-71
2022/02/08 21:08:00;;;;;;;;;;;10.30;81.50;;;;;;4877722;29;20394;-71
2022/02/08 21:10:30;;;;;;;;;;;10.30;81.60;;;;;;4873645;29;19928;-71
2022/02/08 21:13:13;;;;;;;;;;;10.30;81.40;;;;;;4876723;29;19935;-71
2022/02/08 21:15:42;;;;;;;;;;;10.30;81.50;;;;;;4883765;29;21048;-72
2022/02/08 21:18:10;;;;;;;;;;;10.30;81.40;;;;;;4885544;29;19962;-72
2022/02/08 21:20:38;;;;;;;;;;;10.30;81.40;;;;;;4868553;29;19936;-72
2022/02/08 21:23:09;;;;;;;;;;;10.20;81.30;;;;;;4867098;29;19942;-71
2022/02/08 21:25:38;;;;;;;;;;;10.20;81.40;;;;;;4876756;29;19927;-71
2022/02/08 21:28:09;;;;;;;;;;;10.20;81.50;;;;;;4884440;29;19939;-72
2022/02/08 21:33:15;;;;;;;;;;;10.10;81.50;;;;;;4878858;29;19928;-71
2022/02/08 21:44:50;;;;;;;;;;;10.10;81.80;;;;;;4886729;29;20386;-72
2022/02/08 21:49:51;;;;;;;;;;;10.00;82.00;;;;;;4884801;29;19928;-72
2022/02/08 21:54:47;;;;;;;;;;;10.00;82.10;;;;;;4885823;29;19935;-71
2022/02/08 21:57:18;;;;;;;;;;;10.10;82.00;;;;;;4884827;29;20365;-71
2022/02/08 21:59:45;;;;;;;;;;;10.00;82.10;;;;;;4883794;29;19928;-72
2022/02/08 22:02:13;;;;;;;;;;;10.00;82.20;;;;;;4880397;29;19935;-70
2022/02/08 22:04:41;;;;;;;;;;;10.00;82.20;;;;;;4881153;29;19928;-72
2022/02/08 22:07:13;;;;;;;;;;;10.00;82.20;;;;;;4878171;29;19953;-72
2022/02/08 22:09:43;;;;;;;;;;;10.10;82.30;;;;;;4879173;29;19927;-72
2022/02/08 22:21:01;;;;;;;;;;;10.00;82.60;;;;;;4883783;29;19934;-72
2022/02/08 22:26:01;;;;;;;;;;;10.00;82.50;;;;;;4887339;29;19928;-74
2022/02/08 22:31:07;;;;;;;;;;;10.00;82.60;;;;;;4879359;29;19935;-71
2022/02/08 22:33:48;;;;;;;;;;;10.00;82.70;;;;;;4875909;29;20306;-71
2022/02/08 22:36:31;;;;;;;;;;;10.00;82.50;;;;;;4881203;29;19935;-71
2022/02/08 22:39:09;;;;;;;;;;;10.00;82.60;;;;;;4880447;29;19928;-71
2022/02/08 22:46:55;;;;;;;;;;;10.00;82.30;;;;;;4881472;29;19928;-71
2022/02/08 22:49:24;;;;;;;;;;;10.00;82.10;;;;;;4878366;29;19936;-71
2022/02/08 22:51:51;;;;;;;;;;;10.00;82.00;;;;;;4881005;29;19928;-71
2022/02/08 22:54:19;;;;;;;;;;;10.00;82.10;;;;;;4880140;29;19935;-71
2022/02/08 22:56:49;;;;;;;;;;;10.00;82.00;;;;;;4853442;29;19928;-71
2022/02/08 22:59:18;;;;;;;;;;;10.00;82.00;;;;;;4880823;29;19940;-71
2022/02/08 23:01:47;;;;;;;;;;;10.00;81.80;;;;;;4879704;29;19928;-71
2022/02/08 23:04:17;;;;;;;;;;;10.00;81.80;;;;;;4879650;29;20386;-70
2022/02/08 23:06:48;;;;;;;;;;;10.00;81.70;;;;;;4880723;29;19928;-72
2022/02/08 23:09:22;;;;;;;;;;;10.00;81.70;;;;;;4888417;29;19927;-70
2022/02/08 23:37:07;;;;;;;;;;;10.10;81.10;;;;;;4864121;29;19928;-72
2022/02/08 23:39:36;;;;;;;;;;;10.10;81.20;;;;;;4877372;29;19935;-71
2022/02/08 23:42:07;;;;;;;;;;;10.10;81.10;;;;;;4846741;29;19943;-70
2022/02/08 23:44:38;;;;;;;;;;;10.10;81.30;;;;;;4877696;29;19935;-70